createdAt,value
2022-09-21T00:01:54.802Z,21.90
2022-09-21T00:04:25.404Z,21.90
2022-09-21T00:06:54.676Z,21.90
2022-09-21T00:09:23.588Z,21.90
2022-09-21T00:11:57.591Z,21.80
2022-09-21T00:14:27.162Z,21.90
2022-09-21T00:16:56.371Z,21.90
2022-09-21T00:19:26.826Z,21.80
2022-09-21T00:21:56.894Z,21.90
2022-09-21T00:24:25.972Z,21.90
2022-09-21T00:26:55.235Z,22.00
2022-09-21T00:29:24.229Z,22.10
2022-09-21T00:31:53.631Z,21.90
2022-09-21T00:34:22.567Z,21.90
2022-09-21T00:36:53.258Z,21.80
2022-09-21T00:39:22.670Z,21.80
2022-09-21T00:41:53.802Z,21.90
2022-09-21T00:44:34.562Z,21.90
2022-09-21T00:47:08.989Z,21.70
2022-09-21T00:49:38.692Z,21.70
2022-09-21T00:52:09.628Z,22.00
2022-09-21T00:54:44.456Z,21.90
2022-09-21T00:57:16.458Z,21.90
2022-09-21T00:59:47.722Z,21.80
2022-09-21T01:02:17.542Z,21.70
2022-09-21T01:04:47.331Z,21.50
2022-09-21T01:07:21.506Z,21.60
2022-09-21T01:09:54.068Z,21.70
2022-09-21T01:12:38.631Z,21.60
2022-09-21T01:15:21.027Z,21.70
2022-09-21T01:17:58.134Z,21.60
2022-09-21T01:20:56.737Z,21.60
2022-09-21T01:23:51.938Z,21.60
2022-09-21T01:26:31.240Z,21.50
2022-09-21T01:29:17.775Z,21.40
2022-09-21T01:31:52.321Z,21.40
2022-09-21T01:34:30.461Z,21.40
2022-09-21T01:37:04.203Z,21.40
2022-09-21T01:39:37.164Z,21.50
2022-09-21T01:42:08.838Z,21.50
2022-09-21T01:44:41.967Z,21.50
2022-09-21T01:47:14.308Z,21.30
2022-09-21T01:49:46.405Z,21.40
2022-09-21T01:52:19.905Z,21.40
2022-09-21T01:54:54.071Z,21.30
2022-09-21T01:57:27.828Z,21.40
2022-09-21T02:00:00.209Z,21.50
2022-09-21T02:02:33.832Z,21.50
2022-09-21T02:05:03.735Z,21.50
2022-09-21T02:07:33.757Z,21.50
2022-09-21T02:10:03.684Z,21.40
2022-09-21T02:12:33.142Z,21.60
2022-09-21T02:15:04.869Z,21.50
2022-09-21T02:17:42.127Z,21.50
2022-09-21T02:20:21.199Z,21.50
2022-09-21T02:23:03.555Z,21.50
2022-09-21T02:25:41.551Z,21.50
2022-09-21T02:28:17.072Z,21.60
2022-09-21T02:30:57.666Z,21.60
2022-09-21T02:33:32.512Z,21.60
2022-09-21T02:36:09.084Z,21.50
2022-09-21T02:38:45.319Z,21.50
2022-09-21T02:41:18.796Z,21.40
2022-09-21T02:43:51.879Z,21.40
2022-09-21T02:46:28.053Z,21.30
2022-09-21T02:49:01.176Z,21.30
2022-09-21T02:51:35.140Z,21.40
2022-09-21T02:54:08.052Z,21.30
2022-09-21T02:56:38.136Z,21.30
2022-09-21T02:59:08.395Z,21.20
2022-09-21T03:01:42.035Z,21.10
2022-09-21T03:04:12.148Z,21.20
2022-09-21T03:06:41.631Z,21.20
2022-09-21T03:09:10.514Z,21.20
2022-09-21T03:11:42.535Z,21.30
2022-09-21T03:14:11.714Z,21.50
2022-09-21T03:16:42.152Z,21.60
2022-09-21T03:19:12.217Z,21.60
2022-09-21T03:21:44.452Z,21.60
2022-09-21T03:24:34.253Z,21.60
2022-09-21T03:27:03.611Z,21.60
2022-09-21T03:29:32.566Z,21.50
2022-09-21T03:32:04.022Z,21.40
2022-09-21T03:34:34.422Z,21.30
2022-09-21T03:37:04.568Z,21.40
2022-09-21T03:39:33.444Z,21.50
2022-09-21T03:42:04.019Z,21.50
2022-09-21T03:44:33.085Z,21.50
2022-09-21T03:47:04.503Z,21.60
2022-09-21T03:49:34.577Z,21.60
2022-09-21T03:52:04.121Z,21.60
2022-09-21T03:54:33.154Z,21.70
2022-09-21T03:57:02.210Z,21.70
2022-09-21T03:59:31.216Z,21.70
2022-09-21T04:02:00.360Z,21.70
2022-09-21T04:04:30.933Z,21.80
2022-09-21T04:07:00.866Z,21.80
2022-09-21T04:09:29.866Z,21.90
2022-09-21T04:11:58.793Z,22.00
2022-09-21T04:14:27.946Z,22.10
2022-09-21T04:16:57.584Z,22.00
2022-09-21T04:19:26.632Z,22.10
2022-09-21T04:21:57.100Z,22.20
2022-09-21T04:24:27.553Z,22.10
2022-09-21T04:26:56.586Z,22.10
2022-09-21T04:29:25.662Z,22.10
2022-09-21T04:31:54.760Z,22.20
2022-09-21T04:34:23.829Z,22.20
2022-09-21T04:36:53.827Z,22.10
2022-09-21T04:39:24.218Z,21.90
2022-09-21T04:41:53.410Z,21.90
2022-09-21T04:44:22.391Z,21.90
2022-09-21T04:46:51.277Z,21.80
2022-09-21T04:49:20.949Z,21.80
2022-09-21T04:51:50.248Z,21.80
2022-09-21T04:54:19.515Z,21.80
2022-09-21T04:56:50.906Z,21.90
2022-09-21T04:59:19.869Z,22.00
2022-09-21T05:01:48.765Z,22.00
2022-09-21T05:04:18.163Z,22.00
2022-09-21T05:06:47.236Z,21.90
2022-09-21T05:09:33.635Z,21.90
2022-09-21T05:12:04.506Z,21.70
2022-09-21T05:14:33.667Z,21.70
2022-09-21T05:17:02.678Z,21.70
2022-09-21T05:19:31.896Z,21.70
2022-09-21T05:22:01.329Z,21.60
2022-09-21T05:24:30.280Z,21.60
2022-09-21T05:26:59.229Z,21.50
2022-09-21T05:29:30.211Z,21.50
2022-09-21T05:32:06.609Z,21.50
2022-09-21T05:34:45.462Z,21.50
2022-09-21T05:37:31.090Z,21.30
2022-09-21T05:40:00.678Z,21.20
2022-09-21T05:42:30.144Z,21.30
2022-09-21T05:45:01.817Z,21.30
2022-09-21T05:47:39.601Z,21.30
2022-09-21T05:50:25.433Z,21.30
2022-09-21T05:53:06.381Z,21.30
2022-09-21T05:55:46.126Z,21.30
2022-09-21T05:58:22.525Z,21.30
2022-09-21T06:01:11.828Z,21.30
2022-09-21T06:03:44.060Z,21.30
2022-09-21T06:06:13.155Z,21.30
2022-09-21T06:08:42.205Z,21.30
2022-09-21T06:11:11.195Z,21.40
2022-09-21T06:13:41.326Z,21.40
2022-09-21T06:16:12.498Z,21.40
2022-09-21T06:18:42.629Z,21.50
2022-09-21T06:21:12.080Z,21.60
2022-09-21T06:23:41.106Z,21.60
2022-09-21T06:26:10.193Z,21.70
2022-09-21T06:28:39.202Z,21.70
2022-09-21T06:31:08.190Z,21.80
2022-09-21T06:33:39.190Z,21.80
2022-09-21T06:36:08.701Z,21.90
2022-09-21T06:38:37.512Z,21.90
2022-09-21T06:41:07.199Z,22.00
2022-09-21T06:43:36.305Z,22.10
2022-09-21T06:46:06.153Z,22.10
2022-09-21T06:48:37.517Z,22.20
2022-09-21T06:51:07.848Z,22.10
2022-09-21T06:53:37.015Z,22.20
2022-09-21T06:56:08.230Z,22.20
2022-09-21T06:58:37.973Z,22.20
2022-09-21T07:01:08.807Z,22.20
2022-09-21T07:03:40.701Z,22.20
2022-09-21T07:06:11.935Z,22.40
2022-09-21T07:11:29.993Z,22.40
2022-09-21T07:13:59.978Z,22.50
2022-09-21T07:16:30.016Z,22.40
2022-09-21T07:19:10.246Z,22.40
2022-09-21T07:21:40.464Z,22.40
2022-09-21T07:24:12.516Z,22.40
2022-09-21T07:26:42.195Z,22.50
2022-09-21T07:29:11.092Z,22.40
2022-09-21T07:31:40.171Z,22.40
2022-09-21T07:34:10.511Z,22.40
2022-09-21T07:36:39.437Z,22.40
2022-09-21T07:39:10.129Z,22.40
2022-09-21T07:41:39.576Z,22.50
2022-09-21T07:44:08.470Z,22.60
2022-09-21T07:46:41.248Z,22.60
2022-09-21T07:49:14.944Z,22.70
2022-09-21T07:51:44.711Z,22.70
2022-09-21T07:54:16.032Z,22.80
2022-09-21T07:57:05.035Z,22.70
2022-09-21T07:59:33.400Z,22.80
2022-09-21T08:02:02.616Z,22.80
2022-09-21T08:04:33.157Z,22.90
2022-09-21T08:07:02.389Z,22.90
2022-09-21T08:09:31.671Z,23.00
2022-09-21T08:12:01.891Z,23.00
2022-09-21T08:14:31.973Z,23.10
2022-09-21T08:17:01.372Z,23.20
2022-09-21T08:19:30.672Z,23.20
2022-09-21T08:22:01.432Z,23.30
2022-09-21T08:24:31.621Z,23.30
2022-09-21T08:27:00.655Z,23.40
2022-09-21T08:29:30.809Z,23.40
2022-09-21T08:32:00.626Z,23.40
2022-09-21T08:34:29.818Z,23.50
2022-09-21T08:37:00.674Z,23.30
2022-09-21T08:39:29.673Z,23.40
2022-09-21T08:42:32.636Z,23.50
2022-09-21T08:45:07.770Z,23.60
2022-09-21T08:47:43.902Z,23.70
2022-09-21T08:50:30.551Z,23.70
2022-09-21T08:53:06.301Z,23.80
2022-09-21T08:55:35.994Z,23.80
2022-09-21T08:58:05.563Z,23.80
2022-09-21T09:00:42.014Z,23.90
2022-09-21T09:03:39.538Z,23.90
2022-09-21T09:06:26.656Z,23.90
2022-09-21T09:09:20.665Z,24.00
2022-09-21T09:12:07.355Z,24.00
2022-09-21T09:15:11.694Z,23.90
2022-09-21T09:17:51.520Z,24.00
2022-09-21T09:20:25.302Z,24.10
2022-09-21T09:23:05.253Z,24.20
2022-09-21T09:25:39.412Z,24.20
2022-09-21T09:28:22.418Z,24.30
2022-09-21T09:31:01.214Z,24.50
2022-09-21T09:33:37.291Z,24.40
2022-09-21T09:36:07.657Z,23.90
2022-09-21T09:38:41.016Z,24.00
2022-09-21T09:41:37.442Z,24.30
2022-09-21T09:44:29.730Z,24.40
2022-09-21T09:47:10.350Z,24.50
2022-09-21T09:49:53.972Z,24.10
2022-09-21T09:52:24.005Z,24.10
2022-09-21T09:54:54.923Z,24.20
2022-09-21T09:57:30.967Z,24.20
2022-09-21T10:00:04.914Z,24.00
2022-09-21T10:02:49.669Z,24.20
2022-09-21T10:05:25.145Z,24.60
2022-09-21T10:07:54.986Z,24.30
2022-09-21T10:10:37.067Z,24.50
2022-09-21T10:13:15.824Z,24.40
2022-09-21T10:15:50.551Z,24.70
2022-09-21T10:18:24.173Z,24.90
2022-09-21T10:20:58.880Z,25.10
2022-09-21T10:23:29.490Z,25.10
2022-09-21T10:26:05.250Z,25.30
2022-09-21T10:28:36.646Z,25.40
2022-09-21T10:31:22.636Z,25.60
2022-09-21T10:34:06.668Z,25.50
2022-09-21T10:36:37.902Z,25.10
2022-09-21T10:39:28.171Z,25.00
2022-09-21T10:42:01.692Z,25.10
2022-09-21T10:44:40.200Z,25.30
2022-09-21T10:47:30.311Z,25.10
2022-09-21T10:50:02.327Z,25.40
2022-09-21T10:52:37.191Z,25.70
2022-09-21T10:55:08.575Z,25.60
2022-09-21T10:57:37.493Z,25.60
2022-09-21T11:00:35.648Z,25.50
2022-09-21T11:03:23.017Z,25.60
2022-09-21T11:05:53.160Z,25.50
2022-09-21T11:08:30.135Z,25.70
2022-09-21T11:11:10.632Z,25.80
2022-09-21T11:13:45.751Z,25.80
2022-09-21T11:16:19.905Z,25.70
2022-09-21T11:18:55.817Z,25.60
2022-09-21T11:21:34.646Z,25.50
2022-09-21T11:24:12.114Z,25.50
2022-09-21T11:26:48.867Z,25.40
2022-09-21T11:29:23.524Z,25.50
2022-09-21T11:32:16.085Z,25.90
2022-09-21T11:35:07.332Z,25.90
2022-09-21T11:37:51.141Z,25.90
2022-09-21T11:40:33.742Z,25.70
2022-09-21T11:43:15.410Z,25.50
2022-09-21T11:45:59.787Z,25.30
2022-09-21T11:48:45.225Z,25.40
2022-09-21T11:51:26.340Z,25.60
2022-09-21T11:54:41.455Z,25.70
2022-09-21T11:57:19.392Z,25.80
2022-09-21T12:00:06.125Z,25.70
2022-09-21T12:03:18.882Z,25.40
2022-09-21T12:06:00.576Z,25.60
2022-09-21T12:08:52.234Z,25.60
2022-09-21T12:11:32.487Z,25.90
2022-09-21T12:14:09.019Z,25.90
2022-09-21T12:16:45.318Z,25.70
2022-09-21T12:19:24.869Z,25.80
2022-09-21T12:22:01.843Z,25.90
2022-09-21T12:24:36.898Z,25.80
2022-09-21T12:27:12.945Z,25.80
2022-09-21T12:29:47.951Z,26.00
2022-09-21T12:32:23.366Z,25.60
2022-09-21T12:34:58.152Z,25.60
2022-09-21T12:37:35.142Z,25.40
2022-09-21T12:40:10.048Z,25.40
2022-09-21T12:42:45.192Z,25.80
2022-09-21T12:45:20.789Z,26.00
2022-09-21T12:47:58.453Z,25.80
2022-09-21T12:50:32.923Z,25.70
2022-09-21T12:53:04.551Z,25.70
2022-09-21T12:55:45.784Z,25.60
2022-09-21T12:58:30.265Z,25.60
2022-09-21T13:01:07.731Z,25.40
2022-09-21T13:03:44.194Z,25.60
2022-09-21T13:06:39.973Z,25.70
2022-09-21T13:09:14.982Z,25.40
2022-09-21T13:11:54.704Z,25.60
2022-09-21T13:14:26.565Z,25.40
2022-09-21T13:16:59.103Z,25.50
2022-09-21T13:19:31.406Z,25.70
2022-09-21T13:22:19.213Z,25.60
2022-09-21T13:25:03.364Z,25.60
2022-09-21T13:28:01.092Z,25.90
2022-09-21T13:30:34.671Z,25.80
2022-09-21T13:33:05.864Z,25.60
2022-09-21T13:36:06.752Z,25.60
2022-09-21T13:38:58.741Z,25.70
2022-09-21T13:42:01.814Z,25.80
2022-09-21T13:44:22.870Z,25.70
2022-09-21T13:46:59.586Z,25.60
2022-09-21T13:49:44.913Z,25.60
2022-09-21T13:52:39.760Z,25.50
2022-09-21T13:55:25.434Z,25.70
2022-09-21T13:57:59.142Z,25.60
2022-09-21T14:00:40.854Z,25.60
2022-09-21T14:03:22.529Z,25.50
2022-09-21T14:05:54.285Z,25.60
2022-09-21T14:08:30.021Z,25.70
2022-09-21T14:11:02.798Z,25.60
2022-09-21T14:13:36.728Z,25.80
2022-09-21T14:16:44.915Z,25.80
2022-09-21T14:20:02.567Z,26.00
2022-09-21T14:22:42.710Z,25.90
2022-09-21T14:25:48.462Z,25.60
2022-09-21T14:28:18.817Z,25.30
2022-09-21T14:31:09.659Z,25.30
2022-09-21T14:33:47.692Z,26.00
2022-09-21T14:36:20.995Z,26.30
2022-09-21T14:38:55.024Z,26.70
2022-09-21T14:41:31.473Z,26.30
2022-09-21T14:44:01.541Z,26.20
2022-09-21T14:46:59.900Z,26.20
2022-09-21T14:49:57.765Z,26.00
2022-09-21T14:52:40.349Z,26.10
2022-09-21T14:55:19.385Z,26.50
2022-09-21T14:58:01.812Z,26.40
2022-09-21T15:00:40.187Z,26.10
2022-09-21T15:03:39.354Z,26.60
2022-09-21T15:06:38.299Z,26.60
2022-09-21T15:09:47.554Z,26.80
2022-09-21T15:12:20.977Z,26.80
2022-09-21T15:14:58.259Z,27.10
2022-09-21T15:17:29.996Z,27.50
2022-09-21T15:20:02.199Z,26.80
2022-09-21T15:22:32.170Z,26.60
2022-09-21T15:25:06.159Z,26.50
2022-09-21T15:27:36.492Z,26.50
2022-09-21T15:30:07.989Z,26.40
2022-09-21T15:32:40.671Z,26.00
2022-09-21T15:35:20.665Z,26.10
2022-09-21T15:37:51.083Z,26.60
2022-09-21T15:40:23.377Z,26.30
2022-09-21T15:43:06.852Z,26.30
2022-09-21T15:45:46.540Z,25.50
2022-09-21T15:48:15.866Z,25.10
2022-09-21T15:50:49.800Z,25.00
2022-09-21T15:53:23.700Z,24.70
2022-09-21T15:55:53.281Z,24.80
2022-09-21T15:58:37.376Z,24.70
2022-09-21T16:01:13.313Z,24.40
2022-09-21T16:03:43.560Z,24.40
2022-09-21T16:06:37.161Z,24.40
2022-09-21T16:09:30.223Z,24.40
2022-09-21T16:12:00.520Z,24.10
2022-09-21T16:15:03.740Z,24.00
2022-09-21T16:17:38.230Z,24.00
2022-09-21T16:20:23.587Z,23.80
2022-09-21T16:23:06.550Z,24.00
2022-09-21T16:25:37.803Z,24.00
2022-09-21T16:28:25.967Z,23.60
2022-09-21T16:30:56.437Z,23.70
2022-09-21T16:33:44.179Z,23.60
2022-09-21T16:36:38.091Z,23.70
2022-09-21T16:39:15.184Z,23.60
2022-09-21T16:41:58.611Z,23.50
2022-09-21T16:44:34.683Z,23.50
2022-09-21T16:47:05.064Z,23.30
2022-09-21T16:49:35.383Z,23.30
2022-09-21T16:52:07.741Z,23.30
2022-09-21T16:54:38.809Z,23.20
2022-09-21T16:57:08.438Z,23.20
2022-09-21T16:59:37.478Z,23.10
2022-09-21T17:02:07.397Z,23.10
2022-09-21T17:04:37.661Z,23.10
2022-09-21T17:07:07.090Z,23.20
2022-09-21T17:09:39.905Z,23.20
2022-09-21T17:12:11.305Z,23.20
2022-09-21T17:14:46.417Z,23.00
2022-09-21T17:17:19.599Z,23.00
2022-09-21T17:19:50.302Z,23.00
2022-09-21T17:22:19.910Z,22.90
2022-09-21T17:24:52.468Z,22.70
2022-09-21T17:27:23.371Z,22.70
2022-09-21T17:29:54.153Z,22.80
2022-09-21T17:32:24.894Z,22.80
2022-09-21T17:34:59.206Z,22.90
2022-09-21T17:37:29.231Z,22.90
2022-09-21T17:39:59.847Z,22.90
2022-09-21T17:42:29.866Z,22.70
2022-09-21T17:45:18.355Z,22.80
2022-09-21T17:47:50.383Z,22.90
2022-09-21T17:50:24.388Z,22.80
2022-09-21T17:53:11.712Z,22.70
2022-09-21T17:55:46.544Z,22.60
2022-09-21T17:58:41.686Z,22.70
2022-09-21T18:01:22.254Z,22.40
2022-09-21T18:03:51.989Z,22.50
2022-09-21T18:06:22.015Z,22.60
2022-09-21T18:08:51.877Z,22.70
2022-09-21T18:11:49.544Z,22.70
2022-09-21T18:14:27.444Z,22.70
2022-09-21T18:17:08.748Z,22.80
2022-09-21T18:19:48.076Z,22.70
2022-09-21T18:22:33.062Z,22.60
2022-09-21T18:25:05.028Z,22.50
2022-09-21T18:27:36.570Z,22.50
2022-09-21T18:30:08.090Z,22.50
2022-09-21T18:32:53.056Z,22.40
2022-09-21T18:35:40.552Z,22.50
2022-09-21T18:38:23.081Z,22.50
2022-09-21T18:41:13.892Z,22.60
2022-09-21T18:43:59.319Z,22.50
2022-09-21T18:46:33.938Z,22.60
2022-09-21T18:49:07.114Z,22.40
2022-09-21T18:51:41.534Z,22.40
2022-09-21T18:54:19.742Z,22.50
2022-09-21T18:56:49.643Z,22.50
2022-09-21T18:59:20.703Z,22.50
2022-09-21T19:01:50.846Z,22.40
2022-09-21T19:04:20.672Z,22.40
2022-09-21T19:06:54.685Z,22.40
2022-09-21T19:09:36.600Z,22.50
2022-09-21T19:12:21.589Z,22.60
2022-09-21T19:15:00.386Z,22.70
2022-09-21T19:17:45.741Z,22.60
2022-09-21T19:20:35.895Z,22.50
2022-09-21T19:23:16.559Z,22.50
2022-09-21T19:25:50.103Z,22.50
2022-09-21T19:28:48.335Z,22.70
2022-09-21T19:31:20.617Z,22.70
2022-09-21T19:33:51.665Z,22.60
2022-09-21T19:36:21.566Z,22.70
2022-09-21T19:38:51.019Z,22.80
2022-09-21T19:41:35.231Z,22.90
2022-09-21T19:44:17.721Z,23.00
2022-09-21T19:46:58.379Z,23.10
2022-09-21T19:49:34.839Z,22.90
2022-09-21T19:52:07.023Z,22.80
2022-09-21T19:54:54.045Z,22.90
2022-09-21T19:57:41.671Z,22.80
2022-09-21T20:00:13.840Z,22.70
2022-09-21T20:02:54.213Z,22.70
2022-09-21T20:05:31.240Z,22.80
2022-09-21T20:08:05.947Z,22.90
2022-09-21T20:10:49.111Z,22.80
2022-09-21T20:13:25.478Z,22.90
2022-09-21T20:16:01.087Z,22.70
2022-09-21T20:18:41.146Z,22.80
2022-09-21T20:21:15.023Z,22.90
2022-09-21T20:23:46.781Z,23.00
2022-09-21T20:26:25.350Z,23.00
2022-09-21T20:28:55.191Z,22.70
2022-09-21T20:31:25.928Z,22.80
2022-09-21T20:33:56.820Z,22.80
2022-09-21T20:36:26.197Z,23.00
2022-09-21T20:38:56.946Z,22.90
2022-09-21T20:41:25.930Z,22.90
2022-09-21T20:43:54.796Z,22.70
2022-09-21T20:46:23.996Z,22.80
2022-09-21T20:49:05.553Z,22.80
2022-09-21T20:51:36.401Z,22.80
2022-09-21T20:54:06.551Z,22.80
2022-09-21T20:56:35.597Z,22.90
2022-09-21T20:59:04.998Z,22.70
2022-09-21T21:01:34.339Z,22.90
2022-09-21T21:04:04.029Z,22.90
2022-09-21T21:06:35.198Z,22.90
2022-09-21T21:09:05.852Z,23.00
2022-09-21T21:11:34.834Z,23.00
2022-09-21T21:14:05.088Z,22.80
2022-09-21T21:16:34.339Z,22.80
2022-09-21T21:19:03.336Z,22.80
2022-09-21T21:21:32.226Z,22.90
2022-09-21T21:24:23.730Z,22.70
2022-09-21T21:27:02.185Z,22.70
2022-09-21T21:29:32.126Z,22.70
2022-09-21T21:32:01.768Z,22.80
2022-09-21T21:34:30.769Z,22.90
2022-09-21T21:36:59.879Z,22.90
2022-09-21T21:39:28.898Z,22.90
2022-09-21T21:41:59.468Z,22.90
2022-09-21T21:44:29.123Z,22.70
2022-09-21T21:47:10.289Z,22.70
2022-09-21T21:49:48.568Z,22.80
2022-09-21T21:52:17.707Z,22.80
2022-09-21T21:54:46.791Z,22.80
2022-09-21T21:57:17.509Z,22.70
2022-09-21T21:59:46.729Z,22.70
2022-09-21T22:02:16.070Z,22.80
2022-09-21T22:04:45.343Z,22.70
2022-09-21T22:07:14.705Z,22.70
2022-09-21T22:09:43.889Z,22.70
2022-09-21T22:12:13.084Z,22.70
2022-09-21T22:14:46.701Z,22.70
2022-09-21T22:17:16.499Z,22.80
2022-09-21T22:19:45.748Z,22.70
2022-09-21T22:22:14.696Z,22.60
2022-09-21T22:24:43.631Z,22.60
2022-09-21T22:27:12.641Z,22.50
2022-09-21T22:29:43.057Z,22.50
2022-09-21T22:32:12.305Z,22.40
2022-09-21T22:34:41.189Z,22.30
2022-09-21T22:37:10.202Z,22.20
2022-09-21T22:39:39.736Z,22.20
2022-09-21T22:42:11.512Z,22.20
2022-09-21T22:44:40.683Z,22.20
2022-09-21T22:47:11.273Z,22.10
2022-09-21T22:49:40.317Z,22.00
2022-09-21T22:52:09.264Z,22.00
2022-09-21T22:54:38.520Z,22.00
2022-09-21T22:57:07.918Z,21.90
2022-09-21T22:59:36.855Z,21.90
2022-09-21T23:02:08.572Z,21.90
2022-09-21T23:04:39.036Z,21.80
2022-09-21T23:07:08.181Z,21.90
2022-09-21T23:09:37.537Z,21.90
2022-09-21T23:12:07.136Z,21.90
2022-09-21T23:14:36.113Z,21.80
2022-09-21T23:17:05.537Z,21.80
2022-09-21T23:19:34.512Z,21.80
2022-09-21T23:22:05.276Z,21.80
2022-09-21T23:24:34.245Z,21.90
2022-09-21T23:27:03.297Z,21.90
2022-09-21T23:29:32.626Z,21.90
2022-09-21T23:32:01.794Z,21.90
2022-09-21T23:34:31.333Z,21.80
2022-09-21T23:37:00.658Z,21.70
2022-09-21T23:39:31.006Z,21.70
2022-09-21T23:42:00.075Z,21.70
2022-09-21T23:44:29.202Z,21.70
2022-09-21T23:46:58.372Z,21.70
2022-09-21T23:49:27.400Z,21.60
2022-09-21T23:51:56.494Z,21.70
2022-09-21T23:54:25.490Z,21.70
2022-09-21T23:56:56.386Z,21.70
2022-09-21T23:59:25.627Z,21.60
